Sunday, December 04, 2016

  Over 48,494,314 pages visited!

GMT:
13:12
PACIFIC:
6:12:20 AM
MOUNTAIN:
7:12:20 AM

CENTRAL:
8:12:20 AM

EASTERN:
9:12:20 AM
ATLANTIC:
10:12:20 AM
NEWFOUNDLAND:
10:42:20 AM
 

 


Watches/Warnings
Current Conditions
Radar/Satellite
Lightning Images


Current Weather Conditions For TORONTO PEARSON,ON

 


A Few Clouds
 

Temperature: 01�C / 34�F
Dew Point: -3�C / 27�F
Humidity: 75 %
Pressure: 1025.5 mbs (30.28 inches)
Visibility: 24.1 kms (15 SM)
Wind Direction: NE (050�)
Wind Speed: 7.4 Km/h (4.6 MPH)
Max Wind Gust: No Gusts
Humidex: N/A
WindChill: -1�C
    

Observation Information

Date/Time: Sunday, December 04, 2016 @ 14:00Z
Local Time:
Metar Coded: CYYZ 041400Z 05004KT 030V100 15SM FEW018 BKN046 01/M03 A3026 RMK SC1SC6 SLP255

 

 

                   1997-2016 The Ontario Weather Page